Indiapora, Brazil
Current Conditions -  °F | °C
As of 2:00 AM on Thursday 29 Jan 2015 (Local Time) from SBSR Reporting Station
Light Rain Light Rain  
Wind Chill: 72°   Ceiling: 500
Heat Index: 72°   Visibility: 3mi
Dew Point: 68°   Wind: 6mph
Humidity: 88%   Direction: 360°N
Pressure: 30.06"   Gusts: NA
Location:  19.98°S, 50.29°W
Report Text: SBSR 290400Z 36005KT 5000 -RA BR BKN005 OVC070 22/20 Q1018
Loading
Personal Weather Stations






























Interactive Weather Map New forecast layout! Learn more

10-Day Weather Forecast

Advertisements
Track Severe Weather on mobile